createdAt,value
2016-04-06T00:00:53.726Z,1004.38
2016-04-06T00:01:53.744Z,1004.38
2016-04-06T00:02:53.732Z,1004.43
2016-04-06T00:03:53.749Z,1004.38
2016-04-06T00:04:53.752Z,1004.37
2016-04-06T00:05:53.770Z,1004.42
2016-04-06T00:06:53.757Z,1004.37
2016-04-06T00:07:53.776Z,1004.42
2016-04-06T00:08:53.778Z,1004.35
2016-04-06T00:09:53.781Z,1004.39
2016-04-06T00:10:53.783Z,1004.33
2016-04-06T00:11:53.802Z,1004.35
2016-04-06T00:12:53.805Z,1004.35
2016-04-06T00:13:53.807Z,1004.33
2016-04-06T00:14:53.810Z,1004.36
2016-04-06T00:15:53.813Z,1004.34
2016-04-06T00:16:53.830Z,1004.38
2016-04-06T00:17:53.833Z,1004.35
2016-04-06T00:18:53.852Z,1004.37
2016-04-06T00:19:53.855Z,1004.33
2016-04-06T00:20:53.841Z,1004.33
2016-04-06T00:21:53.844Z,1004.33
2016-04-06T00:22:53.863Z,1004.35
2016-04-06T00:23:53.866Z,1004.3
2016-04-06T00:24:53.899Z,1004.35
2016-04-06T00:25:53.871Z,1004.34
2016-04-06T00:26:53.888Z,1004.34
2016-04-06T00:27:53.891Z,1004.36
2016-04-06T00:28:53.894Z,1004.34
2016-04-06T00:29:53.897Z,1004.3
2016-04-06T00:30:53.916Z,1004.36
2016-04-06T00:31:53.919Z,1004.31
2016-04-06T00:32:53.921Z,1004.27
2016-04-06T00:33:53.940Z,1004.27
2016-04-06T00:34:53.926Z,1004.28
2016-04-06T00:35:53.929Z,1004.29
2016-04-06T00:36:53.947Z,1004.29
2016-04-06T00:37:53.950Z,1004.29
2016-04-06T00:38:53.953Z,1004.31
2016-04-06T00:39:53.956Z,1004.3
2016-04-06T00:40:53.974Z,1004.26
2016-04-06T00:41:53.976Z,1004.28
2016-04-06T00:42:53.979Z,1004.27
2016-04-06T00:43:53.997Z,1004.31
2016-04-06T00:44:53.984Z,1004.32
2016-04-06T00:45:54.003Z,1004.28
2016-04-06T00:46:54.005Z,1004.3
2016-04-06T00:47:54.009Z,1004.27
2016-04-06T00:48:54.011Z,1004.27
2016-04-06T00:49:54.014Z,1004.25
2016-04-06T00:50:54.032Z,1004.23
2016-04-06T00:51:54.035Z,1004.29
2016-04-06T00:52:54.038Z,1004.27
2016-04-06T00:53:54.040Z,1004.32
2016-04-06T00:54:54.043Z,1004.31
2016-04-06T00:55:54.060Z,1004.32
2016-04-06T00:56:54.080Z,1004.28
2016-04-06T00:57:54.066Z,1004.33
2016-04-06T00:58:54.069Z,1004.32
2016-04-06T00:59:54.088Z,1004.29
2016-04-06T01:00:54.090Z,1004.32
2016-04-06T01:01:54.093Z,1004.34
2016-04-06T01:02:54.096Z,1004.33
2016-04-06T01:03:54.145Z,1004.3
2016-04-06T01:04:54.116Z,1004.33
2016-04-06T01:05:54.118Z,1004.3
2016-04-06T01:06:54.121Z,1004.34
2016-04-06T01:07:54.124Z,1004.36
2016-04-06T01:08:54.127Z,1004.29
2016-04-06T01:09:54.146Z,1004.29
2016-04-06T01:10:54.148Z,1004.29
2016-04-06T01:11:54.151Z,1004.29
2016-04-06T01:12:54.153Z,1004.24
2016-04-06T01:13:54.172Z,1004.27
2016-04-06T01:14:54.175Z,1004.27
2016-04-06T01:15:54.178Z,1004.25
2016-04-06T01:16:54.181Z,1004.33
2016-04-06T01:17:54.183Z,1004.28
2016-04-06T01:18:54.217Z,1004.23
2016-04-06T01:19:54.203Z,1004.25
2016-04-06T01:20:54.206Z,1004.23
2016-04-06T01:21:54.209Z,1004.21
2016-04-06T01:22:54.211Z,1004.22
2016-04-06T01:23:54.230Z,1004.2
2016-04-06T01:24:54.248Z,1004.21
2016-04-06T01:25:54.236Z,1004.25
2016-04-06T01:26:54.238Z,1004.19
2016-04-06T01:27:54.257Z,1004.27
2016-04-06T01:28:54.260Z,1004.26
2016-04-06T01:29:54.262Z,1004.27
2016-04-06T01:30:54.265Z,1004.24
2016-04-06T01:31:54.267Z,1004.32
2016-04-06T01:32:54.270Z,1004.31
2016-04-06T01:33:54.303Z,1004.29
2016-04-06T01:34:54.290Z,1004.26
2016-04-06T01:35:54.293Z,1004.23
2016-04-06T01:36:54.296Z,1004.3
2016-04-06T01:37:54.315Z,1004.32
2016-04-06T01:38:54.318Z,1004.27
2016-04-06T01:39:54.320Z,1004.31
2016-04-06T01:40:54.323Z,1004.32
2016-04-06T01:41:54.325Z,1004.3
2016-04-06T01:42:54.343Z,1004.33
2016-04-06T01:43:54.346Z,1004.34
2016-04-06T01:44:54.349Z,1004.29
2016-04-06T01:45:54.352Z,1004.38
2016-04-06T01:46:54.370Z,1004.37
2016-04-06T01:47:54.357Z,1004.3
2016-04-06T01:48:54.375Z,1004.3
2016-04-06T01:49:54.378Z,1004.33
2016-04-06T01:50:54.380Z,1004.34
2016-04-06T01:51:54.383Z,1004.29
2016-04-06T01:52:54.402Z,1004.26
2016-04-06T01:53:54.404Z,1004.31
2016-04-06T01:54:54.408Z,1004.29
2016-04-06T01:55:54.410Z,1004.26
2016-04-06T01:56:54.413Z,1004.29
2016-04-06T01:57:54.431Z,1004.25
2016-04-06T01:58:54.433Z,1004.2
2016-04-06T01:59:54.436Z,1004.19
2016-04-06T02:00:54.454Z,1004.2
2016-04-06T02:01:54.441Z,1004.24
2016-04-06T02:02:54.459Z,1004.23
2016-04-06T02:03:54.462Z,1004.22
2016-04-06T02:04:54.465Z,1004.26
2016-04-06T02:05:54.468Z,1004.21
2016-04-06T02:06:54.487Z,1004.23
2016-04-06T02:07:54.489Z,1004.22
2016-04-06T02:08:54.484Z,1004.21
2016-04-06T02:09:54.503Z,1004.24
2016-04-06T02:10:54.505Z,1004.25
2016-04-06T02:11:54.508Z,1004.19
2016-04-06T02:12:54.510Z,1004.23
2016-04-06T02:13:54.513Z,1004.25
2016-04-06T02:14:54.532Z,1004.27
2016-04-06T02:15:54.535Z,1004.24
2016-04-06T02:16:54.538Z,1004.32
2016-04-06T02:17:54.540Z,1004.26
2016-04-06T02:18:54.559Z,1004.28
2016-04-06T02:19:54.561Z,1004.26
2016-04-06T02:20:54.564Z,1004.25
2016-04-06T02:21:54.567Z,1004.29
2016-04-06T02:22:54.570Z,1004.23
2016-04-06T02:23:54.588Z,1004.24
2016-04-06T02:24:54.606Z,1004.19
2016-04-06T02:25:54.593Z,1004.26
2016-04-06T02:26:54.611Z,1004.25
2016-04-06T02:27:54.598Z,1004.28
2016-04-06T02:28:54.616Z,1004.24
2016-04-06T02:29:54.619Z,1004.26
2016-04-06T02:30:54.622Z,1004.26
2016-04-06T02:31:54.625Z,1004.29
2016-04-06T02:32:54.643Z,1004.29
2016-04-06T02:33:54.646Z,1004.27
2016-04-06T02:34:54.648Z,1004.2
2016-04-06T02:35:54.651Z,1004.18
2016-04-06T02:36:54.653Z,1004.17
2016-04-06T02:37:54.656Z,1004.25
2016-04-06T02:38:54.675Z,1004.19
2016-04-06T02:39:54.677Z,1004.21
2016-04-06T02:40:54.680Z,1004.2
2016-04-06T02:41:54.683Z,1004.2
2016-04-06T02:42:54.685Z,1004.18
2016-04-06T02:43:54.704Z,1004.21
2016-04-06T02:44:54.707Z,1004.25
2016-04-06T02:45:54.710Z,1004.26
2016-04-06T02:46:54.712Z,1004.23
2016-04-06T02:47:54.715Z,1004.21
2016-04-06T02:48:54.732Z,1004.2
2016-04-06T02:49:54.735Z,1004.24
2016-04-06T02:50:54.738Z,1004.21
2016-04-06T02:51:54.741Z,1004.29
2016-04-06T02:52:54.760Z,1004.23
2016-04-06T02:53:54.762Z,1004.24
2016-04-06T02:54:54.765Z,1004.24
2016-04-06T02:55:54.767Z,1004.25
2016-04-06T02:56:54.770Z,1004.28
2016-04-06T02:57:54.773Z,1004.24
2016-04-06T02:58:54.791Z,1004.26
2016-04-06T02:59:54.794Z,1004.22
2016-04-06T03:00:54.797Z,1004.28
2016-04-06T03:01:54.800Z,1004.21
2016-04-06T03:02:54.818Z,1004.24
2016-04-06T03:03:54.820Z,1004.26
2016-04-06T03:04:54.823Z,1004.3
2016-04-06T03:05:54.826Z,1004.26
2016-04-06T03:06:54.828Z,1004.23
2016-04-06T03:07:54.847Z,1004.24
2016-04-06T03:08:54.849Z,1004.2
2016-04-06T03:09:54.852Z,1004.19
2016-04-06T03:10:54.854Z,1004.21
2016-04-06T03:11:54.857Z,1004.24
2016-04-06T03:12:54.875Z,1004.25
2016-04-06T03:13:54.878Z,1004.22
2016-04-06T03:14:54.881Z,1004.22
2016-04-06T03:15:54.883Z,1004.2
2016-04-06T03:16:54.902Z,1004.2
2016-04-06T03:17:54.904Z,1004.19
2016-04-06T03:18:54.907Z,1004.24
2016-04-06T03:19:54.910Z,1004.21
2016-04-06T03:20:54.913Z,1004.2
2016-04-06T03:21:54.932Z,1004.2
2016-04-06T03:22:54.934Z,1004.24
2016-04-06T03:23:54.937Z,1004.21
2016-04-06T03:24:54.939Z,1004.19
2016-04-06T03:25:54.942Z,1004.21
2016-04-06T03:26:54.944Z,1004.21
2016-04-06T03:27:54.962Z,1004.21
2016-04-06T03:28:54.965Z,1004.2
2016-04-06T03:29:54.967Z,1004.17
2016-04-06T03:30:54.987Z,1004.21
2016-04-06T03:31:54.973Z,1004.18
2016-04-06T03:32:54.992Z,1004.16
2016-04-06T03:33:54.995Z,1004.21
2016-04-06T03:34:54.998Z,1004.14
2016-04-06T03:35:55.000Z,1004.1
2016-04-06T03:36:55.019Z,1004.11
2016-04-06T03:37:55.021Z,1004.11
2016-04-06T03:38:55.024Z,1004.11
2016-04-06T03:39:55.041Z,1004.06
2016-04-06T03:40:55.029Z,1004.04
2016-04-06T03:41:55.047Z,1004.06
2016-04-06T03:42:55.050Z,1004.1
2016-04-06T03:43:55.053Z,1004.1
2016-04-06T03:44:55.055Z,1004.15
2016-04-06T03:45:55.058Z,1004.11
2016-04-06T03:46:55.076Z,1004.12
2016-04-06T03:47:55.079Z,1004.09
2016-04-06T03:48:55.082Z,1004.09
2016-04-06T03:49:55.085Z,1004.12
2016-04-06T03:50:55.087Z,1004.09
2016-04-06T03:51:55.105Z,1004.13
2016-04-06T03:52:55.108Z,1004.16
2016-04-06T03:53:55.110Z,1004.16
2016-04-06T03:54:55.113Z,1004.19
2016-04-06T03:55:55.116Z,1004.18
2016-04-06T03:56:55.134Z,1004.15
2016-04-06T03:57:55.137Z,1004.13
2016-04-06T03:58:55.139Z,1004.15
2016-04-06T03:59:55.143Z,1004.13
2016-04-06T04:00:55.161Z,1004.11
2016-04-06T04:01:55.164Z,1004.12
2016-04-06T04:02:55.167Z,1004.14
2016-04-06T04:03:55.169Z,1004.11
2016-04-06T04:04:55.172Z,1004.18
2016-04-06T04:05:55.174Z,1004.17
2016-04-06T04:06:55.239Z,1004.18
2016-04-06T04:07:55.195Z,1004.19
2016-04-06T04:08:55.198Z,1004.16
2016-04-06T04:09:55.201Z,1004.17
2016-04-06T04:10:55.203Z,1004.2
2016-04-06T04:11:55.222Z,1004.12
2016-04-06T04:12:55.224Z,1004.11
2016-04-06T04:13:55.227Z,1004.13
2016-04-06T04:14:55.230Z,1004.14
2016-04-06T04:15:55.249Z,1004.11
2016-04-06T04:16:55.251Z,1004.16
2016-04-06T04:17:55.254Z,1004.12
2016-04-06T04:18:55.257Z,1004.16
2016-04-06T04:19:55.259Z,1004.15
2016-04-06T04:20:55.262Z,1004.12
2016-04-06T04:21:55.280Z,1004.1
2016-04-06T04:22:55.282Z,1004.12
2016-04-06T04:23:55.285Z,1004.12
2016-04-06T04:24:55.288Z,1004.13
2016-04-06T04:25:55.306Z,1004.09
2016-04-06T04:26:55.309Z,1004.09
2016-04-06T04:27:55.312Z,1004.17
2016-04-06T04:28:55.314Z,1004.18
2016-04-06T04:29:55.318Z,1004.15
2016-04-06T04:30:55.335Z,1004.16
2016-04-06T04:31:55.338Z,1004.2
2016-04-06T04:32:55.340Z,1004.18
2016-04-06T04:33:55.343Z,1004.2
2016-04-06T04:34:55.361Z,1004.22
2016-04-06T04:35:55.348Z,1004.27
2016-04-06T04:36:55.367Z,1004.26
2016-04-06T04:37:55.369Z,1004.25
2016-04-06T04:38:55.372Z,1004.28
2016-04-06T04:39:55.375Z,1004.33
2016-04-06T04:40:55.394Z,1004.35
2016-04-06T04:41:55.396Z,1004.33
2016-04-06T04:42:55.399Z,1004.31
2016-04-06T04:43:55.402Z,1004.26
2016-04-06T04:44:55.404Z,1004.24
2016-04-06T04:45:55.422Z,1004.21
2016-04-06T04:46:55.425Z,1004.25
2016-04-06T04:47:55.427Z,1004.23
2016-04-06T04:48:55.431Z,1004.24
2016-04-06T04:49:55.433Z,1004.26
2016-04-06T04:50:55.451Z,1004.27
2016-04-06T04:51:55.470Z,1004.29
2016-04-06T04:52:55.457Z,1004.29
2016-04-06T04:53:55.459Z,1004.29
2016-04-06T04:54:55.463Z,1004.29
2016-04-06T04:55:55.465Z,1004.33
2016-04-06T04:56:55.484Z,1004.39
2016-04-06T04:57:55.502Z,1004.39
2016-04-06T04:58:55.489Z,1004.41
2016-04-06T04:59:55.507Z,1004.46
2016-04-06T05:00:55.495Z,1004.41
2016-04-06T05:01:55.512Z,1004.48
2016-04-06T05:02:55.515Z,1004.42
2016-04-06T05:03:55.517Z,1004.45
2016-04-06T05:04:55.520Z,1004.46
2016-04-06T05:05:55.538Z,1004.47
2016-04-06T05:06:55.542Z,1004.49
2016-04-06T05:07:55.545Z,1004.47
2016-04-06T05:08:55.547Z,1004.45
2016-04-06T05:09:55.550Z,1004.47
2016-04-06T05:10:55.568Z,1004.48
2016-04-06T05:11:55.570Z,1004.48
2016-04-06T05:12:55.573Z,1004.45
2016-04-06T05:13:55.576Z,1004.5
2016-04-06T05:14:55.578Z,1004.51
2016-04-06T05:15:55.581Z,1004.47
2016-04-06T05:16:55.599Z,1004.48
2016-04-06T05:17:55.602Z,1004.41
2016-04-06T05:18:55.605Z,1004.44
2016-04-06T05:19:55.639Z,1004.5
2016-04-06T05:20:55.610Z,1004.48
2016-04-06T05:21:55.629Z,1004.53
2016-04-06T05:22:55.632Z,1004.51
2016-04-06T05:23:55.634Z,1004.48
2016-04-06T05:24:55.637Z,1004.45
2016-04-06T05:25:55.640Z,1004.49
2016-04-06T05:26:55.642Z,1004.5
2016-04-06T05:27:55.660Z,1004.45
2016-04-06T05:28:55.658Z,1004.51
2016-04-06T05:29:55.660Z,1004.57
2016-04-06T05:30:55.679Z,1004.51
2016-04-06T05:31:55.682Z,1004.55
2016-04-06T05:32:55.685Z,1004.5
2016-04-06T05:33:55.687Z,1004.57
2016-04-06T05:34:55.706Z,1004.51
2016-04-06T05:35:55.709Z,1004.51
2016-04-06T05:36:55.712Z,1004.55
2016-04-06T05:37:55.714Z,1004.53
2016-04-06T05:38:55.716Z,1004.52
2016-04-06T05:39:55.735Z,1004.56
2016-04-06T05:40:55.737Z,1004.5
2016-04-06T05:41:55.740Z,1004.52
2016-04-06T05:42:55.743Z,1004.59
2016-04-06T05:43:55.745Z,1004.57
2016-04-06T05:44:55.764Z,1004.59
2016-04-06T05:45:55.767Z,1004.6
2016-04-06T05:46:55.769Z,1004.57
2016-04-06T05:47:55.772Z,1004.57
2016-04-06T05:48:55.774Z,1004.56
2016-04-06T05:49:55.793Z,1004.55
2016-04-06T05:50:55.796Z,1004.53
2016-04-06T05:51:55.798Z,1004.56
2016-04-06T05:52:55.801Z,1004.57
2016-04-06T05:53:55.804Z,1004.56
2016-04-06T05:54:55.822Z,1004.58
2016-04-06T05:55:55.824Z,1004.66
2016-04-06T05:56:55.827Z,1004.62
2016-04-06T05:57:55.829Z,1004.6
2016-04-06T05:58:55.833Z,1004.59
2016-04-06T05:59:55.836Z,1004.63
2016-04-06T06:00:55.853Z,1004.65
2016-04-06T06:01:55.857Z,1004.66
2016-04-06T06:02:55.859Z,1004.59
2016-04-06T06:03:55.873Z,1004.61
2016-04-06T06:04:56.061Z,1004.61
2016-04-06T06:05:55.984Z,1004.6
2016-04-06T06:06:56.032Z,1004.69
2016-04-06T06:07:56.081Z,1004.61
2016-04-06T06:08:56.121Z,1004.58
2016-04-06T06:09:56.140Z,1004.59
2016-04-06T06:10:56.175Z,1004.66
2016-04-06T06:11:56.193Z,1004.61
2016-04-06T06:12:56.229Z,1004.61
2016-04-06T06:13:56.229Z,1004.65
2016-04-06T06:14:56.237Z,1004.65
2016-04-06T06:15:56.262Z,1004.65
2016-04-06T06:16:56.270Z,1004.61
2016-04-06T06:17:56.278Z,1004.7
2016-04-06T06:18:56.286Z,1004.6
2016-04-06T06:19:56.321Z,1004.68
2016-04-06T06:20:56.310Z,1004.63
2016-04-06T06:21:56.315Z,1004.62
2016-04-06T06:22:56.320Z,1004.63
2016-04-06T06:23:56.325Z,1004.64
2016-04-06T06:24:56.329Z,1004.66
2016-04-06T06:25:56.349Z,1004.63
2016-04-06T06:26:56.352Z,1004.65
2016-04-06T06:27:56.355Z,1004.65
2016-04-06T06:28:56.359Z,1004.69
2016-04-06T06:29:56.362Z,1004.65
2016-04-06T06:30:56.381Z,1004.73
2016-04-06T06:31:56.384Z,1004.69
2016-04-06T06:32:56.387Z,1004.85
2016-04-06T06:33:56.390Z,1004.76
2016-04-06T06:34:56.423Z,1004.74
2016-04-06T06:35:56.426Z,1004.67
2016-04-06T06:36:56.413Z,1004.66
2016-04-06T06:37:56.416Z,1004.73
2016-04-06T06:38:56.418Z,1004.7
2016-04-06T06:39:56.421Z,1004.69
2016-04-06T06:40:56.440Z,1004.68
2016-04-06T06:41:56.443Z,1004.71
2016-04-06T06:42:56.445Z,1004.67
2016-04-06T06:43:56.448Z,1004.67
2016-04-06T06:44:56.466Z,1004.65
2016-04-06T06:45:56.469Z,1004.72
2016-04-06T06:46:56.471Z,1004.75
2016-04-06T06:47:56.473Z,1004.68
2016-04-06T06:48:56.476Z,1004.67
2016-04-06T06:49:56.495Z,1004.72
2016-04-06T06:50:56.498Z,1004.7
2016-04-06T06:51:56.500Z,1004.73
2016-04-06T06:52:56.503Z,1004.74
2016-04-06T06:53:56.506Z,1004.73
2016-04-06T06:54:56.508Z,1004.72
2016-04-06T06:55:56.527Z,1004.73
2016-04-06T06:56:56.530Z,1004.73
2016-04-06T06:57:56.533Z,1004.78
2016-04-06T06:58:56.535Z,1004.71
2016-04-06T06:59:56.537Z,1004.74
2016-04-06T07:00:56.555Z,1004.78
2016-04-06T07:01:56.559Z,1004.77
2016-04-06T07:02:56.561Z,1004.82
2016-04-06T07:03:56.564Z,1004.76
2016-04-06T07:04:56.566Z,1004.78
2016-04-06T07:05:56.585Z,1004.73
2016-04-06T07:06:56.588Z,1004.8
2016-04-06T07:07:56.590Z,1004.81
2016-04-06T07:08:56.593Z,1004.81
2016-04-06T07:09:56.596Z,1004.75
2016-04-06T07:10:56.615Z,1004.82
2016-04-06T07:11:56.617Z,1004.8
2016-04-06T07:12:56.620Z,1004.76
2016-04-06T07:13:56.622Z,1004.74
2016-04-06T07:14:56.640Z,1004.78
2016-04-06T07:15:56.627Z,1004.81
2016-04-06T07:16:56.645Z,1004.79
2016-04-06T07:17:56.648Z,1004.84
2016-04-06T07:18:56.651Z,1004.84
2016-04-06T07:19:56.669Z,1004.86
2016-04-06T07:20:56.673Z,1004.88
2016-04-06T07:21:56.675Z,1004.88
2016-04-06T07:22:56.678Z,1004.84
2016-04-06T07:23:56.681Z,1004.86
2016-04-06T07:24:56.684Z,1004.91
2016-04-06T07:25:56.701Z,1004.91
2016-04-06T07:26:56.703Z,1004.86
2016-04-06T07:27:56.706Z,1004.85
2016-04-06T07:28:56.709Z,1004.88
2016-04-06T07:29:56.711Z,1004.9
2016-04-06T07:30:56.730Z,1004.92
2016-04-06T07:31:56.733Z,1004.92
2016-04-06T07:32:56.735Z,1004.94
2016-04-06T07:33:56.739Z,1004.92
2016-04-06T07:34:56.741Z,1004.97
2016-04-06T07:35:56.744Z,1004.94
2016-04-06T07:36:56.762Z,1004.91
2016-04-06T07:37:56.765Z,1004.94
2016-04-06T07:38:56.768Z,1004.98
2016-04-06T07:39:56.771Z,1004.96
2016-04-06T07:40:56.788Z,1004.99
2016-04-06T07:41:56.791Z,1005
2016-04-06T07:42:56.810Z,1005.02
2016-04-06T07:43:56.796Z,1005.02
2016-04-06T07:44:56.831Z,1005.02
2016-04-06T07:45:56.818Z,1005.03
2016-04-06T07:46:56.821Z,1005
2016-04-06T07:47:56.823Z,1004.93
2016-04-06T07:48:56.842Z,1004.93
2016-04-06T07:49:56.845Z,1004.95
2016-04-06T07:50:56.847Z,1004.96
2016-04-06T07:51:56.850Z,1004.92
2016-04-06T07:52:56.852Z,1004.98
2016-04-06T07:53:56.855Z,1004.97
2016-04-06T07:54:56.873Z,1004.99
2016-04-06T07:55:56.875Z,1004.92
2016-04-06T07:56:56.878Z,1004.99
2016-04-06T07:57:56.881Z,1004.97
2016-04-06T07:58:56.900Z,1004.96
2016-04-06T07:59:56.902Z,1005.02
2016-04-06T08:00:56.905Z,1005.04
2016-04-06T08:01:56.922Z,1005.08
2016-04-06T08:02:56.926Z,1005.05
2016-04-06T08:03:56.928Z,1005.03
2016-04-06T08:04:56.930Z,1005.06
2016-04-06T08:05:56.949Z,1005.07
2016-04-06T08:06:56.952Z,1005.06
2016-04-06T08:07:56.955Z,1005.13
2016-04-06T08:08:56.958Z,1005.14
2016-04-06T08:09:56.960Z,1005.08
2016-04-06T08:10:56.963Z,1005.08
2016-04-06T08:11:56.982Z,1005.11
2016-04-06T08:12:56.984Z,1005.04
2016-04-06T08:13:57.002Z,1005.11
2016-04-06T08:14:56.990Z,1005.08
2016-04-06T08:15:57.007Z,1005.1
2016-04-06T08:16:57.010Z,1005.09
2016-04-06T08:17:57.012Z,1005.13
2016-04-06T08:18:57.015Z,1005.11
2016-04-06T08:19:57.034Z,1005.04
2016-04-06T08:20:57.052Z,1005.07
2016-04-06T08:21:57.055Z,1005.1
2016-04-06T08:22:57.042Z,1005.01
2016-04-06T08:23:57.076Z,1004.99
2016-04-06T08:24:57.064Z,1005
2016-04-06T08:25:57.066Z,1004.96
2016-04-06T08:26:57.084Z,1005.03
2016-04-06T08:27:57.086Z,1005.05
2016-04-06T08:28:57.090Z,1005.02
2016-04-06T08:29:57.092Z,1005.04
2016-04-06T08:30:57.095Z,1005.04
2016-04-06T08:31:57.128Z,1005.14
2016-04-06T08:32:57.116Z,1005.12
2016-04-06T08:33:57.119Z,1005.12
2016-04-06T08:34:57.137Z,1005.12
2016-04-06T08:35:57.140Z,1005.09
2016-04-06T08:36:57.142Z,1005.08
2016-04-06T08:37:57.160Z,1005.11
2016-04-06T08:38:57.163Z,1005.1
2016-04-06T08:39:57.182Z,1005.17
2016-04-06T08:40:57.169Z,1005.11
2016-04-06T08:41:57.171Z,1005.23
2016-04-06T08:42:57.190Z,1005.08
2016-04-06T08:43:57.193Z,1005.09
2016-04-06T08:44:57.196Z,1005.15
2016-04-06T08:45:57.213Z,1005.27
2016-04-06T08:46:57.216Z,1005.17
2016-04-06T08:47:57.219Z,1005.14
2016-04-06T08:48:57.221Z,1005.15
2016-04-06T08:49:57.239Z,1005.16
2016-04-06T08:50:57.243Z,1005.09
2016-04-06T08:51:57.245Z,1005.1
2016-04-06T08:52:57.248Z,1005.05
2016-04-06T08:53:57.267Z,1005.04
2016-04-06T08:54:57.269Z,1005.01
2016-04-06T08:55:57.287Z,1005.04
2016-04-06T08:56:57.290Z,1004.99
2016-04-06T08:57:57.292Z,1004.97
2016-04-06T08:58:57.295Z,1005.05
2016-04-06T08:59:57.297Z,1005.05
2016-04-06T09:00:57.317Z,1005.04
2016-04-06T09:01:57.334Z,1004.99
2016-04-06T09:02:57.322Z,1004.98
2016-04-06T09:03:57.339Z,1004.9
2016-04-06T09:04:57.342Z,1005
2016-04-06T09:05:57.345Z,1004.87
2016-04-06T09:06:57.364Z,1004.93
2016-04-06T09:07:57.366Z,1004.91
2016-04-06T09:08:57.369Z,1004.95
2016-04-06T09:09:57.371Z,1005
2016-04-06T09:10:57.390Z,1004.96
2016-04-06T09:11:57.393Z,1004.97
2016-04-06T09:12:57.395Z,1004.92
2016-04-06T09:13:57.414Z,1004.95
2016-04-06T09:14:57.416Z,1004.85
2016-04-06T09:15:57.418Z,1004.89
2016-04-06T09:16:57.421Z,1004.97
2016-04-06T09:17:57.440Z,1004.98
2016-04-06T09:18:57.443Z,1004.92
2016-04-06T09:19:57.445Z,1004.89
2016-04-06T09:20:57.465Z,1004.95
2016-04-06T09:21:57.467Z,1004.92
2016-04-06T09:22:57.469Z,1004.83
2016-04-06T09:23:57.473Z,1004.88
2016-04-06T09:24:57.490Z,1004.8
2016-04-06T09:25:57.493Z,1004.79
2016-04-06T09:26:57.495Z,1004.76
2016-04-06T09:27:57.514Z,1004.72
2016-04-06T09:28:57.517Z,1004.75
2016-04-06T09:29:57.519Z,1004.74
2016-04-06T09:30:57.522Z,1004.87
2016-04-06T09:31:57.540Z,1004.79
2016-04-06T09:32:57.543Z,1004.73
2016-04-06T09:33:57.545Z,1004.71
2016-04-06T09:34:57.564Z,1004.73
2016-04-06T09:35:57.567Z,1004.71
2016-04-06T09:36:57.569Z,1004.76
2016-04-06T09:37:57.588Z,1004.71
2016-04-06T09:38:57.591Z,1004.7
2016-04-06T09:39:57.640Z,1004.78
2016-04-06T09:40:57.596Z,1004.72
2016-04-06T09:41:57.614Z,1004.72
2016-04-06T09:42:57.621Z,1004.83
2016-04-06T09:43:57.624Z,1004.67
2016-04-06T09:44:57.658Z,1004.7
2016-04-06T09:45:57.638Z,1004.68
2016-04-06T09:46:57.641Z,1004.58
2016-04-06T09:47:57.660Z,1004.61
2016-04-06T09:48:57.662Z,1004.59
2016-04-06T09:49:57.666Z,1004.59
2016-04-06T09:50:57.683Z,1004.57
2016-04-06T09:51:57.686Z,1004.58
2016-04-06T09:52:57.688Z,1004.6
2016-04-06T09:53:57.707Z,1004.53
2016-04-06T09:54:57.710Z,1004.55
2016-04-06T09:55:57.712Z,1004.46
2016-04-06T09:56:57.715Z,1004.47
2016-04-06T09:57:57.733Z,1004.45
2016-04-06T09:58:57.735Z,1004.46
2016-04-06T09:59:57.738Z,1004.39
2016-04-06T10:00:57.756Z,1004.36
2016-04-06T10:01:57.760Z,1004.41
2016-04-06T10:02:57.762Z,1004.39
2016-04-06T10:03:57.765Z,1004.31
2016-04-06T10:04:57.784Z,1004.35
2016-04-06T10:05:57.786Z,1004.34
2016-04-06T10:06:57.789Z,1004.36
2016-04-06T10:07:57.807Z,1004.28
2016-04-06T10:08:57.809Z,1004.46
2016-04-06T10:09:57.812Z,1004.27
2016-04-06T10:10:57.878Z,1004.33
2016-04-06T10:11:57.833Z,1004.33
2016-04-06T10:12:57.836Z,1004.26
2016-04-06T10:13:57.839Z,1004.27
2016-04-06T10:14:57.857Z,1004.21
2016-04-06T10:15:57.860Z,1004.25
2016-04-06T10:16:57.863Z,1004.2
2016-04-06T10:17:57.881Z,1004.23
2016-04-06T10:18:57.883Z,1004.24
2016-04-06T10:19:57.886Z,1004.15
2016-04-06T10:20:57.905Z,1004.07
2016-04-06T10:21:57.907Z,1004.09
2016-04-06T10:22:57.910Z,1004.02
2016-04-06T10:23:57.913Z,1004
2016-04-06T10:24:57.930Z,1004.08
2016-04-06T10:25:57.933Z,1003.98
2016-04-06T10:26:57.936Z,1004.03
2016-04-06T10:27:57.955Z,1004.07
2016-04-06T10:28:57.957Z,1004.1
2016-04-06T10:29:57.959Z,1004.02
2016-04-06T10:30:57.963Z,1004.18
2016-04-06T10:31:57.981Z,1003.87
2016-04-06T10:32:57.984Z,1003.94
2016-04-06T10:33:57.986Z,1003.89
2016-04-06T10:34:58.005Z,1004.01
2016-04-06T10:35:58.007Z,1003.94
2016-04-06T10:36:58.009Z,1003.87
2016-04-06T10:37:58.012Z,1003.9
2016-04-06T10:38:58.031Z,1003.93
2016-04-06T10:39:58.050Z,1003.88
2016-04-06T10:40:58.036Z,1003.93
2016-04-06T10:41:58.039Z,1003.94
2016-04-06T10:42:58.058Z,1003.99
2016-04-06T10:43:58.060Z,1003.96
2016-04-06T10:44:58.063Z,1003.86
2016-04-06T10:45:58.081Z,1003.93
2016-04-06T10:46:58.084Z,1003.92
2016-04-06T10:47:58.087Z,1003.85
2016-04-06T10:48:58.105Z,1003.96
2016-04-06T10:49:58.107Z,1003.89
2016-04-06T10:50:58.110Z,1003.92
2016-04-06T10:51:58.113Z,1003.96
2016-04-06T10:52:58.131Z,1003.98
2016-04-06T10:53:58.133Z,1004.04
2016-04-06T10:54:58.136Z,1003.92
2016-04-06T10:55:58.155Z,1003.99
2016-04-06T10:56:58.891Z,1003.97
2016-04-06T10:57:58.160Z,1003.88
2016-04-06T10:58:58.163Z,1003.83
2016-04-06T10:59:58.165Z,1003.85
2016-04-06T11:00:58.184Z,1003.81
2016-04-06T11:01:58.186Z,1003.8
2016-04-06T11:02:58.190Z,1003.87
2016-04-06T11:03:58.207Z,1003.77
2016-04-06T11:04:58.209Z,1003.74
2016-04-06T11:05:58.322Z,1003.8
2016-04-06T11:06:58.216Z,1003.79
2016-04-06T11:07:58.234Z,1003.74
2016-04-06T11:08:58.236Z,1003.8
2016-04-06T11:09:58.240Z,1003.78
2016-04-06T11:10:58.242Z,1003.83
2016-04-06T11:11:58.260Z,1003.86
2016-04-06T11:12:58.264Z,1003.72
2016-04-06T11:13:58.267Z,1003.89
2016-04-06T11:14:58.284Z,1003.77
2016-04-06T11:15:58.286Z,1003.7
2016-04-06T11:16:58.289Z,1003.71
2016-04-06T11:17:58.292Z,1003.65
2016-04-06T11:18:58.310Z,1003.75
2016-04-06T11:19:58.313Z,1003.62
2016-04-06T11:20:58.316Z,1003.75
2016-04-06T11:21:58.319Z,1003.78
2016-04-06T11:22:58.336Z,1003.63
2016-04-06T11:23:58.339Z,1003.64
2016-04-06T11:24:58.342Z,1003.48
2016-04-06T11:25:58.360Z,1003.68
2016-04-06T11:26:58.363Z,1003.54
2016-04-06T11:27:58.366Z,1003.85
2016-04-06T11:28:58.368Z,1003.49
2016-04-06T11:29:58.387Z,1003.58
2016-04-06T11:30:58.389Z,1003.49
2016-04-06T11:31:58.392Z,1003.27
2016-04-06T11:32:58.410Z,1003.31
2016-04-06T11:33:58.413Z,1003.34
2016-04-06T11:34:58.448Z,1003.29
2016-04-06T11:35:58.512Z,1003.42
2016-04-06T11:36:58.437Z,1003.36
2016-04-06T11:37:58.440Z,1003.31
2016-04-06T11:38:58.442Z,1003.33
2016-04-06T11:39:58.461Z,1003.32
2016-04-06T11:40:58.463Z,1003.26
2016-04-06T11:41:58.467Z,1003.26
2016-04-06T11:42:58.484Z,1003.21
2016-04-06T11:43:58.487Z,1003.22
2016-04-06T11:44:58.489Z,1003.23
2016-04-06T11:45:58.508Z,1003.21
2016-04-06T11:46:58.511Z,1003.24
2016-04-06T11:47:58.514Z,1003.2
2016-04-06T11:48:58.516Z,1003.24
2016-04-06T11:49:58.519Z,1003.13
2016-04-06T11:50:58.537Z,1003.16
2016-04-06T11:51:58.539Z,1003.21
2016-04-06T11:52:58.542Z,1003.27
2016-04-06T11:53:58.544Z,1003.46
2016-04-06T11:54:58.563Z,1003.38
2016-04-06T11:55:58.566Z,1003.16
2016-04-06T11:56:58.569Z,1003.18
2016-04-06T11:57:58.588Z,1003.26
2016-04-06T11:58:58.590Z,1003.24
2016-04-06T11:59:58.593Z,1003.21
2016-04-06T12:00:58.595Z,1003.57
2016-04-06T12:01:58.613Z,1003.21
2016-04-06T12:02:58.616Z,1003.11
2016-04-06T12:03:58.619Z,1003.2
2016-04-06T12:04:58.621Z,1003.43
2016-04-06T12:05:58.640Z,1003.19
2016-04-06T12:06:58.642Z,1003.02
2016-04-06T12:07:58.653Z,1003.05
2016-04-06T12:08:58.655Z,1003.01